Ever Diamond — 3FQS8 — position and weather

sailwx.info

Track history (hours):
 
Tides and Currents Weather Stations Pressure Air Temp Water Temp Dewpoint Dewpoint Depression Visibility Wind Speed Wind Dir Waves Ship Positions

Ever Diamond

Last reported at 2014-Nov-29 03:30 UTC. Time now 2014-Nov-29 03:41 UTC.
Position N 29°53' E 122°03'.

Type: Ship (hazmat cat D). MMSI: 354893000.

Date/timePositionNaut miles runAvg speedWind from/ knotsBaromVisibWave heightAir tempDewpointWater temp
2014-Nov-29 03:30N 29°53' E 122°03'7 7.0
2014-Nov-29 02:33N 29°55' E 122°10'1212.0
2014-Nov-29 01:33N 29°46' E 122°18'3 1.0
2014-Nov-28 22:06N 29°45' E 122°22'0 0.8
2014-Nov-28 21:34N 29°45' E 122°22'1 0.8
2014-Nov-28 20:33N 29°45' E 122°21'10 9.6
2014-Nov-28 19:33N 29°39' E 122°30'1513.4
2014-Nov-28 18:26N 29°24' E 122°33'35213.4
2014-Nov-27 16:14N 24°17' E 119°20'6513.8
2014-Nov-27 11:30N 23°35' E 118°25'7612.7
2014-Nov-27 05:29N 22°59' E 117°12'1612.7
2014-Nov-27 04:15N 22°51' E 116°58'1112.5
2014-Nov-27 03:24N 22°45' E 116°48'14111.9
2014-Nov-26 15:33N 22°34' E 114°17'1 1.0
2014-Nov-26 14:33N 22°34' E 114°16'0 0.0
2014-Nov-26 13:23N 22°34' E 114°16'0 0.0
2014-Nov-26 12:29N 22°34' E 114°16'0 0.0
2014-Nov-26 11:23N 22°34' E 114°16'0 0.0
2014-Nov-26 10:29N 22°34' E 114°16'0 0.0
2014-Nov-26 09:23N 22°34' E 114°16'0 0.0
2014-Nov-26 08:29N 22°34' E 114°16'0 0.1
2014-Nov-26 07:33N 22°34' E 114°16'26 8.0
2014-Nov-26 04:17N 22°08' E 114°13'811.0
2014-Nov-26 03:33N 22°14' E 114°08'4 0.3
2014-Nov-25 12:34N 22°18' E 114°06'14811.9
2014-Nov-25 00:03N 22°18' E 116°46'916.3
2014-Nov-24 23:31N 22°18' E 116°56'3716.7
2014-Nov-24 21:19N 22°20' E 117°35'1416.0
2014-Nov-24 20:28N 22°20' E 117°50'4515.3
2014-Nov-24 17:33N 22°23' E 118°38'1915.8
2014-Nov-24 16:23N 22°26' E 118°58'1314.9
2014-Nov-24 15:32N 22°27' E 119°12'1414.4
2014-Nov-24 14:33N 22°27' E 119°27'1616.7
2014-Nov-24 13:33N 22°29' E 119°45'1615.8
2014-Nov-24 12:33N 22°30' E 120°02'1514.8
2014-Nov-24 11:33N 22°33' E 120°18'2 2.1
2014-Nov-24 10:32N 22°33' E 120°20'0 0.0
2014-Nov-24 09:28N 22°33' E 120°20'0 0.0
2014-Nov-24 04:31N 22°33' E 120°20'0 0.0
2014-Nov-24 03:25N 22°33' E 120°20'0 0.0
2014-Nov-24 02:31N 22°33' E 120°20'0 0.0
2014-Nov-23 23:13N 22°33' E 120°20'0 0.0
2014-Nov-23 22:31N 22°33' E 120°20'0 0.0
2014-Nov-23 21:31N 22°33' E 120°20'0 0.0
2014-Nov-23 20:31N 22°33' E 120°20'0 0.0
2014-Nov-23 19:19N 22°33' E 120°20'0 0.0
2014-Nov-23 10:32N 22°33' E 120°20'5 4.7
2014-Nov-23 09:33N 22°32' E 120°15'1414.3
2014-Nov-23 08:33N 22°18' E 120°16'  
2014-Nov-20 00:20N 34°57' E 139°39'40 5.9
2014-Nov-19 17:29N 35°37' E 139°47'0 0.1
2014-Nov-19 16:29N 35°37' E 139°47'0 0.1
2014-Nov-19 15:32N 35°37' E 139°47'0 0.0
2014-Nov-19 14:32N 35°37' E 139°47'0 0.0
2014-Nov-19 13:29N 35°37' E 139°47'0 0.0
2014-Nov-19 12:23N 35°37' E 139°47'0 0.1
2014-Nov-19 11:26N 35°37' E 139°47'0 0.0
2014-Nov-19 10:17N 35°37' E 139°47'1 1.5
2014-Nov-19 09:33N 35°36' E 139°47'4 3.7
2014-Nov-19 08:31N 35°34' E 139°51'0 0.1
2014-Nov-19 07:31N 35°34' E 139°51'0 0.0
2014-Nov-19 06:28N 35°34' E 139°51'0 0.0
2014-Nov-19 05:31N 35°34' E 139°51'0 0.0
2014-Nov-19 04:31N 35°34' E 139°51'0 0.0
2014-Nov-19 03:31N 35°34' E 139°51'  
Track history (hours):
 
Tides and Currents Weather Stations Pressure Air Temp Water Temp Dewpoint Dewpoint Depression Visibility Wind Speed Wind Dir Waves Ship Positions

Ever Diamond

Last reported at 2014-Nov-29 03:30 UTC. Time now 2014-Nov-29 03:41 UTC.
Position N 29°53' E 122°03'.

Type: Ship (hazmat cat D). MMSI: 354893000.

Date/timePositionNaut miles runAvg speedWind from/ knotsBaromVisibWave heightAir tempDewpointWater temp
2014-Nov-29 03:30N 29°53' E 122°03'7 7.0
2014-Nov-29 02:33N 29°55' E 122°10'1212.0
2014-Nov-29 01:33N 29°46' E 122°18'3 1.0
2014-Nov-28 22:06N 29°45' E 122°22'0 0.8
2014-Nov-28 21:34N 29°45' E 122°22'1 0.8
2014-Nov-28 20:33N 29°45' E 122°21'10 9.6
2014-Nov-28 19:33N 29°39' E 122°30'1513.4
2014-Nov-28 18:26N 29°24' E 122°33'35213.4
2014-Nov-27 16:14N 24°17' E 119°20'6513.8
2014-Nov-27 11:30N 23°35' E 118°25'7612.7
2014-Nov-27 05:29N 22°59' E 117°12'1612.7
2014-Nov-27 04:15N 22°51' E 116°58'1112.5
2014-Nov-27 03:24N 22°45' E 116°48'14111.9
2014-Nov-26 15:33N 22°34' E 114°17'1 1.0
2014-Nov-26 14:33N 22°34' E 114°16'0 0.0
2014-Nov-26 13:23N 22°34' E 114°16'0 0.0
2014-Nov-26 12:29N 22°34' E 114°16'0 0.0
2014-Nov-26 11:23N 22°34' E 114°16'0 0.0
2014-Nov-26 10:29N 22°34' E 114°16'0 0.0
2014-Nov-26 09:23N 22°34' E 114°16'0 0.0
2014-Nov-26 08:29N 22°34' E 114°16'0 0.1
2014-Nov-26 07:33N 22°34' E 114°16'26 8.0
2014-Nov-26 04:17N 22°08' E 114°13'811.0
2014-Nov-26 03:33N 22°14' E 114°08'4 0.3
2014-Nov-25 12:34N 22°18' E 114°06'14811.9
2014-Nov-25 00:03N 22°18' E 116°46'916.3
2014-Nov-24 23:31N 22°18' E 116°56'3716.7
2014-Nov-24 21:19N 22°20' E 117°35'1416.0
2014-Nov-24 20:28N 22°20' E 117°50'4515.3
2014-Nov-24 17:33N 22°23' E 118°38'1915.8
2014-Nov-24 16:23N 22°26' E 118°58'1314.9
2014-Nov-24 15:32N 22°27' E 119°12'1414.4
2014-Nov-24 14:33N 22°27' E 119°27'1616.7
2014-Nov-24 13:33N 22°29' E 119°45'1615.8
2014-Nov-24 12:33N 22°30' E 120°02'1514.8
2014-Nov-24 11:33N 22°33' E 120°18'2 2.1
2014-Nov-24 10:32N 22°33' E 120°20'0 0.0
2014-Nov-24 09:28N 22°33' E 120°20'0 0.0
2014-Nov-24 04:31N 22°33' E 120°20'0 0.0
2014-Nov-24 03:25N 22°33' E 120°20'0 0.0
2014-Nov-24 02:31N 22°33' E 120°20'0 0.0
2014-Nov-23 23:13N 22°33' E 120°20'0 0.0
2014-Nov-23 22:31N 22°33' E 120°20'0 0.0
2014-Nov-23 21:31N 22°33' E 120°20'0 0.0
2014-Nov-23 20:31N 22°33' E 120°20'0 0.0
2014-Nov-23 19:19N 22°33' E 120°20'0 0.0
2014-Nov-23 10:32N 22°33' E 120°20'5 4.7
2014-Nov-23 09:33N 22°32' E 120°15'1414.3
2014-Nov-23 08:33N 22°18' E 120°16'  
2014-Nov-20 00:20N 34°57' E 139°39'40 5.9
2014-Nov-19 17:29N 35°37' E 139°47'0 0.1
2014-Nov-19 16:29N 35°37' E 139°47'0 0.1
2014-Nov-19 15:32N 35°37' E 139°47'0 0.0
2014-Nov-19 14:32N 35°37' E 139°47'0 0.0
2014-Nov-19 13:29N 35°37' E 139°47'0 0.0
2014-Nov-19 12:23N 35°37' E 139°47'0 0.1
2014-Nov-19 11:26N 35°37' E 139°47'0 0.0
2014-Nov-19 10:17N 35°37' E 139°47'1 1.5
2014-Nov-19 09:33N 35°36' E 139°47'4 3.7
2014-Nov-19 08:31N 35°34' E 139°51'0 0.1
2014-Nov-19 07:31N 35°34' E 139°51'0 0.0
2014-Nov-19 06:28N 35°34' E 139°51'0 0.0
2014-Nov-19 05:31N 35°34' E 139°51'0 0.0
2014-Nov-19 04:31N 35°34' E 139°51'0 0.0
2014-Nov-19 03:31N 35°34' E 139°51'  

Dump ship's entire track history